Time;durP1;ratioP1;P1;durP2;ratioP2;P2;SDS_P1;SDS_P2;PMS_P1;PMS_P2;Temp;Humidity;BMP_temperature;BMP_pressure;BME280_temperature;BME280_humidity;BME280_pressure;Samples;Min_cycle;Max_cycle;Signal;HPM_P1;HPM_P2
2022/04/23 00:02:02;;;;;;;12.97;8.17;;;7.40;87.50;;;;;;4827746;29;20560;-85
2022/04/23 00:04:30;;;;;;;11.90;8.30;;;7.40;87.60;;;;;;4827599;29;20188;-86
2022/04/23 00:06:59;;;;;;;14.87;9.07;;;7.30;87.70;;;;;;4811247;29;20208;-84
2022/04/23 00:09:25;;;;;;;15.60;9.00;;;7.20;87.80;;;;;;4827536;29;20274;-84
2022/04/23 00:11:55;;;;;;;14.83;8.43;;;7.20;88.00;;;;;;4811348;29;20284;-85
2022/04/23 00:14:21;;;;;;;16.30;9.13;;;7.10;88.10;;;;;;4827607;29;20179;-85
2022/04/23 00:16:49;;;;;;;15.27;8.97;;;7.10;88.30;;;;;;4811274;29;20219;-82
2022/04/23 00:19:14;;;;;;;21.53;9.77;;;7.10;88.40;;;;;;4828251;29;20184;-85
2022/04/23 00:21:40;;;;;;;14.43;9.43;;;7.00;88.50;;;;;;4827580;29;20191;-84
2022/04/23 00:24:06;;;;;;;15.40;9.97;;;7.10;88.50;;;;;;4811347;29;20188;-85
2022/04/23 00:26:31;;;;;;;16.23;10.87;;;7.00;88.40;;;;;;4810976;29;20266;-85
2022/04/23 00:28:57;;;;;;;18.50;10.73;;;7.10;88.50;;;;;;4810534;29;20201;-83
2022/04/23 00:32:01;;;;;;;16.17;10.53;;;7.10;88.50;;;;;;4827236;29;20562;-85
2022/04/23 00:34:28;;;;;;;16.73;11.00;;;7.10;88.40;;;;;;4827226;29;20221;-84
2022/04/23 00:36:54;;;;;;;18.10;10.63;;;7.10;88.30;;;;;;4827002;29;20211;-85
2022/04/23 00:39:20;;;;;;;14.90;11.10;;;7.10;88.20;;;;;;4827605;29;20186;-87
2022/04/23 00:41:48;;;;;;;17.50;11.53;;;7.10;88.10;;;;;;4811379;29;20188;-87
2022/04/23 00:44:15;;;;;;;17.63;10.60;;;7.00;88.10;;;;;;4827483;29;20183;-85
2022/04/23 00:46:42;;;;;;;15.80;10.27;;;7.00;88.20;;;;;;4811089;29;20215;-86
2022/04/23 00:49:07;;;;;;;15.03;10.30;;;7.00;88.20;;;;;;4827484;29;20191;-85
2022/04/23 00:51:33;;;;;;;13.67;10.00;;;6.90;88.20;;;;;;4827511;29;20271;-87
2022/04/23 00:54:04;;;;;;;17.40;10.90;;;6.90;88.20;;;;;;4811161;29;20191;-85
2022/04/23 00:56:30;;;;;;;13.93;11.20;;;6.90;88.30;;;;;;4827360;29;20211;-86
2022/04/23 00:58:56;;;;;;;18.90;11.33;;;6.90;88.20;;;;;;4826959;29;20210;-88
2022/04/23 01:01:23;;;;;;;14.20;11.90;;;6.80;88.30;;;;;;4827584;29;20642;-85
2022/04/23 01:03:50;;;;;;;16.97;10.83;;;6.70;88.30;;;;;;4827379;29;20214;-87
2022/04/23 01:06:16;;;;;;;15.57;11.07;;;6.70;88.40;;;;;;4810807;29;20241;-87
2022/04/23 01:08:42;;;;;;;17.23;11.40;;;6.70;88.50;;;;;;4826939;29;20198;-87
2022/04/23 01:11:07;;;;;;;17.97;11.17;;;6.60;88.50;;;;;;4810840;29;20186;-88
2022/04/23 01:13:33;;;;;;;19.23;11.80;;;6.60;88.70;;;;;;4810545;29;20548;-85
2022/04/23 01:16:05;;;;;;;17.20;11.40;;;6.60;88.70;;;;;;4810396;29;20218;-87
2022/04/23 01:18:31;;;;;;;18.80;11.83;;;6.60;88.70;;;;;;4810914;29;20179;-87
2022/04/23 01:20:59;;;;;;;18.30;11.67;;;6.50;88.80;;;;;;4826791;29;20708;-86
2022/04/23 01:23:25;;;;;;;18.87;11.27;;;6.50;89.00;;;;;;4810300;29;20198;-87
2022/04/23 01:25:53;;;;;;;18.53;12.40;;;6.40;89.00;;;;;;4810139;29;20234;-86
2022/04/23 01:28:23;;;;;;;16.17;12.43;;;6.40;89.00;;;;;;4810468;29;20195;-87
2022/04/23 01:30:50;;;;;;;18.10;12.57;;;6.30;89.10;;;;;;4810469;29;20277;-86
2022/04/23 01:33:15;;;;;;;16.77;12.13;;;6.30;89.20;;;;;;4826601;29;20221;-86
2022/04/23 01:35:42;;;;;;;17.67;13.63;;;6.30;89.20;;;;;;4810255;29;20623;-86
2022/04/23 01:38:07;;;;;;;19.43;13.03;;;6.20;89.40;;;;;;4809773;29;20193;-87
2022/04/23 01:40:33;;;;;;;16.73;12.57;;;6.20;89.50;;;;;;4826662;29;20710;-86
2022/04/23 01:42:58;;;;;;;24.13;13.77;;;6.10;89.60;;;;;;4810446;29;20217;-86
2022/04/23 01:45:24;;;;;;;18.70;13.63;;;6.00;89.70;;;;;;4826395;29;20205;-86
2022/04/23 01:47:50;;;;;;;19.80;13.07;;;6.00;89.80;;;;;;4809927;29;20189;-85
2022/04/23 01:50:15;;;;;;;18.93;13.07;;;6.00;89.90;;;;;;4809776;29;20194;-87
2022/04/23 01:52:41;;;;;;;16.37;12.17;;;5.90;89.90;;;;;;4809967;29;20197;-87
2022/04/23 01:55:07;;;;;;;20.20;13.60;;;5.80;90.00;;;;;;4826214;29;20186;-85
2022/04/23 01:57:32;;;;;;;19.97;13.20;;;5.70;90.10;;;;;;4809801;29;20693;-87
2022/04/23 01:59:58;;;;;;;25.30;14.87;;;5.70;90.20;;;;;;4809827;29;20188;-87
2022/04/23 02:02:23;;;;;;;20.00;13.77;;;5.70;90.30;;;;;;4809879;29;20192;-87
2022/04/23 02:04:49;;;;;;;25.87;14.10;;;5.60;90.40;;;;;;4809630;29;20185;-86
2022/04/23 02:07:14;;;;;;;28.00;15.20;;;5.60;90.60;;;;;;4809865;29;20578;-87
2022/04/23 02:09:40;;;;;;;24.23;14.90;;;5.60;90.60;;;;;;4809585;29;20184;-86
2022/04/23 02:12:06;;;;;;;26.77;15.03;;;5.60;90.70;;;;;;4826097;29;20186;-87
2022/04/23 02:14:31;;;;;;;27.17;15.93;;;5.50;90.80;;;;;;4809467;29;20184;-87
2022/04/23 02:16:57;;;;;;;21.23;14.10;;;5.50;90.90;;;;;;4809396;29;20223;-87
2022/04/23 02:19:22;;;;;;;21.57;14.80;;;5.50;91.00;;;;;;4809513;29;20181;-86
2022/04/23 02:21:48;;;;;;;23.63;15.17;;;5.50;91.10;;;;;;4809738;29;20233;-87
2022/04/23 02:24:13;;;;;;;22.03;16.07;;;5.60;91.20;;;;;;4825907;29;20371;-86
2022/04/23 02:26:39;;;;;;;21.33;14.93;;;5.60;91.20;;;;;;4826250;29;20228;-88
2022/04/23 02:29:05;;;;;;;25.23;15.93;;;5.60;91.20;;;;;;4809552;29;20735;-87
2022/04/23 02:31:30;;;;;;;29.77;17.73;;;5.60;91.20;;;;;;4809407;29;20181;-87
2022/04/23 02:33:57;;;;;;;22.57;15.60;;;5.60;91.30;;;;;;4809224;29;20180;-87
2022/04/23 02:36:23;;;;;;;23.03;16.00;;;5.60;91.40;;;;;;4809052;29;20597;-86
2022/04/23 02:38:50;;;;;;;26.80;17.80;;;5.60;91.40;;;;;;4809366;29;20271;-87
2022/04/23 02:41:15;;;;;;;22.97;16.70;;;5.60;91.50;;;;;;4826013;29;20177;-87
2022/04/23 02:43:42;;;;;;;24.40;17.17;;;5.50;91.50;;;;;;4809152;29;20619;-87
2022/04/23 02:46:09;;;;;;;32.87;17.17;;;5.60;91.60;;;;;;4809165;29;20227;-86
2022/04/23 02:48:38;;;;;;;29.53;18.60;;;5.50;91.60;;;;;;4809104;29;20184;-86
2022/04/23 02:51:03;;;;;;;27.67;16.77;;;5.50;91.70;;;;;;4808393;29;20188;-87
2022/04/23 02:53:29;;;;;;;30.27;18.00;;;5.50;91.70;;;;;;4809245;29;20181;-86
2022/04/23 02:55:56;;;;;;;27.60;17.27;;;5.50;91.80;;;;;;4809029;29;20220;-86
2022/04/23 02:58:26;;;;;;;23.90;16.70;;;5.40;91.80;;;;;;4809168;29;20202;-87
2022/04/23 03:00:55;;;;;;;27.93;17.73;;;5.40;91.90;;;;;;4808901;29;20207;-86
2022/04/23 03:03:21;;;;;;;31.50;17.70;;;5.40;91.90;;;;;;4825750;29;20241;-86
2022/04/23 03:05:46;;;;;;;31.87;19.27;;;5.40;92.00;;;;;;4808874;29;20767;-86
2022/04/23 03:08:13;;;;;;;31.60;19.90;;;5.30;92.00;;;;;;4825332;29;20212;-86
2022/04/23 03:10:39;;;;;;;27.93;19.73;;;5.30;92.00;;;;;;4808912;29;20190;-86
2022/04/23 03:13:07;;;;;;;28.57;19.87;;;5.30;92.00;;;;;;4808830;29;20185;-87
2022/04/23 03:15:33;;;;;;;33.00;19.70;;;5.30;92.10;;;;;;4825230;29;20196;-87
2022/04/23 03:18:11;;;;;;;34.80;20.17;;;5.20;92.10;;;;;;4825234;29;20623;-87
2022/04/23 03:20:38;;;;;;;31.70;19.43;;;5.20;92.10;;;;;;4809079;29;20225;-88
2022/04/23 03:23:04;;;;;;;35.47;21.90;;;5.20;92.20;;;;;;4808858;29;20651;-87
2022/04/23 03:25:32;;;;;;;30.13;19.73;;;5.10;92.30;;;;;;4825381;29;20212;-87
2022/04/23 03:27:59;;;;;;;31.73;20.13;;;5.10;92.30;;;;;;4825403;29;20161;-87
2022/04/23 03:30:25;;;;;;;31.80;21.23;;;5.10;92.30;;;;;;4808860;29;20181;-86
2022/04/23 03:32:50;;;;;;;41.20;22.30;;;5.10;92.40;;;;;;4808720;29;20185;-87
2022/04/23 03:35:16;;;;;;;36.67;22.07;;;5.00;92.40;;;;;;4808489;29;20203;-87
2022/04/23 03:37:41;;;;;;;34.37;23.20;;;5.00;92.40;;;;;;4808586;29;20227;-88
2022/04/23 03:40:09;;;;;;;32.73;22.13;;;5.00;92.50;;;;;;4808392;29;20188;-86
2022/04/23 03:42:35;;;;;;;36.67;23.00;;;5.00;92.50;;;;;;4808348;29;20191;-87
2022/04/23 03:45:04;;;;;;;40.57;23.43;;;4.90;92.50;;;;;;4824923;29;20265;-87
2022/04/23 03:47:31;;;;;;;35.80;23.10;;;5.00;92.60;;;;;;4808678;29;20191;-87
2022/04/23 03:49:57;;;;;;;35.90;25.10;;;5.00;92.60;;;;;;4809856;29;20186;-87
2022/04/23 03:52:22;;;;;;;34.97;23.93;;;4.90;92.60;;;;;;4808745;29;20289;-88
2022/04/23 03:54:48;;;;;;;27.63;20.67;;;5.00;92.70;;;;;;4808395;29;20211;-88
2022/04/23 03:57:14;;;;;;;37.60;24.20;;;5.00;92.80;;;;;;4824466;29;20218;-87
2022/04/23 03:59:39;;;;;;;38.90;24.17;;;5.00;92.80;;;;;;4825112;29;20186;-87
2022/04/23 04:02:05;;;;;;;39.40;24.50;;;5.00;92.80;;;;;;4809955;29;20247;-87
2022/04/23 04:04:32;;;;;;;37.83;24.80;;;5.00;92.80;;;;;;4813407;29;20196;-87
2022/04/23 04:06:59;;;;;;;41.33;26.03;;;5.10;92.90;;;;;;4811596;29;20263;-88
2022/04/23 04:09:26;;;;;;;39.30;25.47;;;5.10;92.90;;;;;;4828285;29;20660;-87
2022/04/23 04:12:01;;;;;;;42.43;26.13;;;5.10;92.90;;;;;;4811805;29;20193;-86
2022/04/23 04:14:26;;;;;;;40.50;26.17;;;5.10;92.90;;;;;;4828272;29;20175;-88
2022/04/23 04:16:52;;;;;;;39.83;26.10;;;5.20;92.90;;;;;;4811816;29;20599;-87
2022/04/23 04:19:18;;;;;;;45.03;27.97;;;5.20;92.90;;;;;;4811490;29;20211;-87
2022/04/23 04:21:46;;;;;;;43.93;25.43;;;5.30;92.90;;;;;;4811396;29;20188;-87
2022/04/23 04:24:16;;;;;;;43.23;28.27;;;5.30;92.90;;;;;;4827386;29;20217;-87
2022/04/23 04:26:52;;;;;;;44.33;27.83;;;5.30;92.80;;;;;;4827361;29;20227;-87
2022/04/23 04:29:17;;;;;;;46.80;28.27;;;5.30;92.80;;;;;;4811041;29;20566;-86
2022/04/23 04:31:49;;;;;;;49.77;30.50;;;5.30;92.70;;;;;;4811105;29;20189;-87
2022/04/23 04:34:19;;;;;;;44.43;29.23;;;5.30;92.70;;;;;;4810948;29;20703;-87
2022/04/23 04:36:46;;;;;;;43.83;29.17;;;5.30;92.70;;;;;;4827113;29;20212;-87
2022/04/23 04:39:13;;;;;;;48.97;29.57;;;5.30;92.60;;;;;;4811851;29;20185;-87
2022/04/23 04:41:39;;;;;;;44.03;29.97;;;5.30;92.60;;;;;;4827447;29;20177;-86
2022/04/23 04:44:05;;;;;;;48.30;30.20;;;5.30;92.50;;;;;;4827252;29;20176;-87
2022/04/23 04:46:32;;;;;;;50.53;30.77;;;5.30;92.50;;;;;;4810778;29;20208;-87
2022/04/23 04:48:58;;;;;;;48.33;31.00;;;5.30;92.50;;;;;;4811154;29;20265;-86
2022/04/23 04:51:23;;;;;;;48.63;30.13;;;5.40;92.50;;;;;;4811140;29;20662;-87
2022/04/23 04:53:51;;;;;;;51.07;32.57;;;5.50;92.50;;;;;;4827094;29;20180;-86
2022/04/23 04:56:17;;;;;;;44.07;30.00;;;5.50;92.50;;;;;;4810698;29;20212;-86
2022/04/23 04:58:43;;;;;;;55.37;29.70;;;5.60;92.50;;;;;;4827023;29;20172;-86
2022/04/23 05:01:09;;;;;;;44.17;29.10;;;5.60;92.40;;;;;;4826990;29;20653;-88
2022/04/23 05:03:35;;;;;;;48.47;30.63;;;5.70;92.40;;;;;;4810790;29;20221;-86
2022/04/23 05:06:01;;;;;;;57.00;34.67;;;5.80;92.40;;;;;;4810592;29;20235;-86
2022/04/23 05:08:26;;;;;;;47.57;30.53;;;5.80;92.40;;;;;;4810487;29;20187;-86
2022/04/23 05:10:52;;;;;;;45.43;32.63;;;5.80;92.40;;;;;;4810545;29;20185;-86
2022/04/23 05:13:17;;;;;;;51.00;33.27;;;5.90;92.30;;;;;;4810067;29;20572;-87
2022/04/23 05:15:45;;;;;;;48.50;32.07;;;5.90;92.30;;;;;;4810290;29;20692;-87
2022/04/23 05:18:10;;;;;;;46.73;31.10;;;6.00;92.30;;;;;;4810323;29;20173;-86
2022/04/23 05:20:36;;;;;;;51.50;33.77;;;6.00;92.20;;;;;;4810444;29;20182;-87
2022/04/23 05:23:02;;;;;;;48.53;32.90;;;6.10;92.20;;;;;;4810236;29;20545;-86
2022/04/23 05:25:27;;;;;;;48.50;33.37;;;6.20;92.20;;;;;;4810022;29;20321;-86
2022/04/23 05:27:53;;;;;;;47.63;31.27;;;6.30;92.20;;;;;;4810379;29;20609;-86
2022/04/23 05:30:18;;;;;;;43.67;31.30;;;6.30;92.00;;;;;;4826872;29;20594;-86
2022/04/23 05:32:44;;;;;;;40.50;26.77;;;6.30;91.90;;;;;;4826815;29;20204;-87
2022/04/23 05:35:09;;;;;;;49.20;32.13;;;6.40;91.90;;;;;;4810637;29;20205;-86
2022/04/23 05:37:35;;;;;;;43.57;28.30;;;6.40;91.80;;;;;;4810248;29;20215;-87
2022/04/23 05:40:00;;;;;;;43.37;29.63;;;6.50;91.60;;;;;;4827159;29;20315;-88
2022/04/23 05:42:26;;;;;;;43.23;29.43;;;6.50;91.50;;;;;;4810314;29;20301;-88
2022/04/23 05:44:51;;;;;;;46.23;29.40;;;6.60;91.50;;;;;;4826864;29;20732;-87
2022/04/23 05:47:17;;;;;;;45.43;31.47;;;6.70;91.30;;;;;;4809906;29;20207;-85
2022/04/23 05:49:42;;;;;;;47.63;29.63;;;6.70;91.20;;;;;;4826947;29;20191;-86
2022/04/23 05:52:08;;;;;;;40.90;28.80;;;6.80;91.00;;;;;;4826748;29;20186;-87
2022/04/23 05:54:34;;;;;;;41.70;27.23;;;6.90;91.00;;;;;;4810106;29;20211;-87
2022/04/23 05:57:00;;;;;;;43.87;26.03;;;7.00;90.90;;;;;;4826379;29;20207;-87
2022/04/23 05:59:28;;;;;;;42.83;26.37;;;7.10;90.70;;;;;;4809797;29;20729;-86
2022/04/23 06:01:54;;;;;;;39.20;25.73;;;7.10;90.20;;;;;;4826537;29;20177;-86
2022/04/23 06:04:20;;;;;;;35.33;26.10;;;7.20;90.20;;;;;;4826458;29;20190;-86
2022/04/23 06:06:45;;;;;;;32.67;23.60;;;7.30;90.00;;;;;;4809684;29;20230;-88
2022/04/23 06:09:12;;;;;;;33.33;23.87;;;7.30;89.80;;;;;;4809977;29;20200;-87
2022/04/23 06:11:39;;;;;;;35.30;24.63;;;7.50;89.80;;;;;;4809730;29;20194;-87
2022/04/23 06:14:05;;;;;;;36.73;24.27;;;7.60;89.30;;;;;;4826100;29;20172;-86
2022/04/23 06:16:30;;;;;;;35.63;23.40;;;7.70;88.90;;;;;;4825895;29;20271;-85
2022/04/23 06:18:56;;;;;;;30.00;23.33;;;7.80;88.20;;;;;;4825967;29;20172;-87
2022/04/23 06:21:21;;;;;;;27.17;22.67;;;7.90;88.10;;;;;;4809318;29;20328;-86
2022/04/23 06:23:47;;;;;;;29.17;21.93;;;8.10;88.10;;;;;;4809497;29;20181;-86
2022/04/23 06:26:12;;;;;;;29.77;20.17;;;8.10;86.70;;;;;;4808983;29;20239;-87
2022/04/23 06:28:38;;;;;;;28.60;21.57;;;8.20;86.60;;;;;;4825822;29;20180;-86
2022/04/23 06:31:03;;;;;;;31.60;22.60;;;8.40;86.90;;;;;;4809138;29;20184;-86
2022/04/23 06:33:29;;;;;;;32.17;20.93;;;8.60;86.40;;;;;;4809052;29;20659;-87
2022/04/23 06:35:55;;;;;;;27.57;21.47;;;8.70;85.90;;;;;;4808969;29;20707;-87
2022/04/23 06:38:20;;;;;;;27.30;18.67;;;8.90;85.30;;;;;;4825946;29;20651;-87
2022/04/23 06:40:47;;;;;;;24.53;17.80;;;9.00;83.30;;;;;;4825595;29;20188;-86
2022/04/23 06:43:13;;;;;;;21.37;15.83;;;9.20;81.90;;;;;;4809117;29;20741;-88
2022/04/23 06:45:39;;;;;;;27.03;17.63;;;9.30;81.40;;;;;;4809131;29;20212;-86
2022/04/23 06:48:05;;;;;;;22.23;14.67;;;9.40;81.20;;;;;;4808847;29;20664;-85
2022/04/23 06:50:36;;;;;;;20.90;15.73;;;9.50;80.10;;;;;;4825780;29;20640;-87
2022/04/23 06:53:02;;;;;;;21.10;15.57;;;9.60;78.60;;;;;;4825194;29;20336;-85
2022/04/23 06:55:28;;;;;;;21.03;15.70;;;9.80;78.50;;;;;;4808987;29;20199;-86
2022/04/23 06:57:54;;;;;;;17.10;13.93;;;9.80;77.60;;;;;;4808804;29;20184;-86
2022/04/23 07:00:23;;;;;;;15.80;12.97;;;10.00;76.20;;;;;;4825228;29;20558;-86
2022/04/23 07:02:50;;;;;;;19.57;14.23;;;10.10;74.80;;;;;;4825505;29;20172;-86
2022/04/23 07:05:16;;;;;;;14.87;13.23;;;10.30;75.70;;;;;;4808844;29;20183;-85
2022/04/23 07:07:52;;;;;;;17.00;13.57;;;10.30;75.00;;;;;;4825274;29;20183;-86
2022/04/23 07:10:18;;;;;;;15.30;12.33;;;10.40;75.50;;;;;;4825277;29;20204;-86
2022/04/23 07:12:43;;;;;;;16.00;11.63;;;10.50;74.30;;;;;;4808819;29;20218;-85
2022/04/23 07:15:09;;;;;;;16.63;12.27;;;10.60;72.00;;;;;;4825168;29;20686;-86
2022/04/23 07:17:35;;;;;;;13.30;11.63;;;10.70;71.50;;;;;;4808516;29;20204;-86
2022/04/23 07:20:00;;;;;;;16.67;11.97;;;10.90;72.50;;;;;;4825634;29;20195;-86
2022/04/23 07:22:26;;;;;;;15.23;11.70;;;11.00;71.20;;;;;;4825171;29;20237;-86
2022/04/23 07:24:51;;;;;;;13.87;11.47;;;11.00;71.50;;;;;;4808938;29;20564;-86
2022/04/23 07:27:17;;;;;;;19.17;9.87;;;11.10;70.40;;;;;;4808773;29;20295;-86
2022/04/23 07:29:43;;;;;;;10.30;8.77;;;11.20;69.20;;;;;;4808870;29;20642;-85
2022/04/23 07:32:08;;;;;;;11.53;7.83;;;11.30;67.70;;;;;;4825027;29;20195;-86
2022/04/23 07:37:31;;;;;;;14.43;9.93;;;11.40;66.10;;;;;;4826478;29;20737;-86
2022/04/23 07:40:02;;;;;;;9.40;8.40;;;11.50;67.40;;;;;;4828409;29;20164;-86
2022/04/23 07:42:28;;;;;;;13.87;9.60;;;11.70;66.60;;;;;;4811943;29;20181;-86
2022/04/23 07:44:54;;;;;;;10.33;8.53;;;11.70;66.30;;;;;;4812031;29;20271;-86
2022/04/23 07:47:20;;;;;;;9.40;7.37;;;11.90;66.20;;;;;;4828247;29;20288;-86
2022/04/23 07:49:46;;;;;;;10.13;7.87;;;12.00;62.70;;;;;;4828163;29;20187;-86
2022/04/23 07:52:11;;;;;;;8.27;6.40;;;12.10;62.60;;;;;;4811899;29;20609;-86
2022/04/23 07:54:40;;;;;;;9.27;7.77;;;12.10;61.20;;;;;;4828810;29;20188;-87
2022/04/23 07:57:07;;;;;;;11.30;8.40;;;12.20;62.30;;;;;;4812078;29;20205;-85
2022/04/23 07:59:33;;;;;;;9.37;7.13;;;12.30;61.10;;;;;;4812310;29;20184;-85
2022/04/23 08:01:58;;;;;;;7.10;6.27;;;12.40;61.20;;;;;;4811915;29;20186;-86
2022/04/23 08:04:24;;;;;;;8.97;6.43;;;12.40;60.10;;;;;;4811965;29;20184;-87
2022/04/23 08:06:50;;;;;;;7.73;6.97;;;12.50;58.10;;;;;;4828513;29;20232;-85
2022/04/23 08:09:16;;;;;;;8.63;7.47;;;12.60;61.00;;;;;;4829029;29;20188;-88
2022/04/23 08:11:42;;;;;;;7.53;6.70;;;12.60;58.80;;;;;;4812296;29;20317;-87
2022/04/23 08:14:07;;;;;;;7.30;6.37;;;12.70;58.60;;;;;;4829076;29;20320;-85
2022/04/23 08:16:33;;;;;;;10.87;7.17;;;12.90;58.30;;;;;;4812328;29;20645;-86
2022/04/23 08:18:59;;;;;;;11.33;6.53;;;13.00;60.30;;;;;;4828424;29;20192;-86
2022/04/23 08:21:24;;;;;;;12.33;6.10;;;13.00;56.40;;;;;;4811137;29;20187;-88
2022/04/23 08:23:50;;;;;;;7.70;5.80;;;13.10;58.00;;;;;;4827883;29;20203;-87
2022/04/23 08:26:16;;;;;;;7.83;6.10;;;13.20;57.90;;;;;;4811277;29;20591;-87
2022/04/23 08:31:25;;;;;;;8.90;5.93;;;13.30;54.80;;;;;;4827844;29;20179;-86
2022/04/23 08:34:03;;;;;;;7.10;5.43;;;13.30;55.80;;;;;;4811275;29;20192;-86
2022/04/23 08:36:31;;;;;;;9.63;6.57;;;13.50;56.20;;;;;;4827695;29;20308;-86
2022/04/23 08:38:58;;;;;;;7.70;5.90;;;13.50;55.10;;;;;;4827808;29;20173;-87
2022/04/23 08:41:31;;;;;;;8.40;6.13;;;13.60;57.10;;;;;;4827375;29;20180;-87
2022/04/23 08:44:06;;;;;;;5.57;5.00;;;13.70;54.40;;;;;;4811427;29;20169;-86
2022/04/23 08:46:39;;;;;;;5.67;5.03;;;13.80;52.30;;;;;;4811116;29;20707;-87
2022/04/23 08:49:13;;;;;;;5.33;4.20;;;13.80;52.40;;;;;;4826193;29;20176;-87
2022/04/23 08:51:41;;;;;;;5.93;3.87;;;14.10;52.20;;;;;;4827205;29;20517;-87
2022/04/23 08:54:09;;;;;;;4.43;3.77;;;14.10;51.60;;;;;;4810816;29;20731;-87
2022/04/23 08:56:36;;;;;;;7.57;3.97;;;14.00;50.00;;;;;;4826952;29;20208;-87
2022/04/23 08:59:02;;;;;;;4.37;3.97;;;14.10;50.00;;;;;;4827079;29;20264;-87
2022/04/23 09:01:31;;;;;;;4.37;3.97;;;14.10;49.50;;;;;;4810456;29;20674;-87
2022/04/23 09:03:57;;;;;;;4.83;4.03;;;14.30;51.70;;;;;;4810335;29;20208;-87
2022/04/23 09:06:27;;;;;;;5.43;4.80;;;14.50;51.10;;;;;;4810224;29;20261;-87
2022/04/23 09:09:13;;;;;;;5.80;4.20;;;14.60;50.90;;;;;;4810849;29;20655;-88
2022/04/23 09:11:40;;;;;;;4.27;3.73;;;14.50;49.00;;;;;;4826997;29;20180;-87
2022/04/23 09:14:07;;;;;;;6.03;4.27;;;14.50;50.10;;;;;;4827209;29;20191;-86
2022/04/23 09:25:10;;;;;;;7.83;4.30;;;14.80;49.50;;;;;;4826958;29;20630;-86
2022/04/23 09:27:37;;;;;;;4.00;3.60;;;14.90;49.10;;;;;;4810519;29;20184;-86
2022/04/23 09:30:05;;;;;;;2.33;2.13;;;14.90;48.80;;;;;;4810342;29;20188;-86
2022/04/23 09:32:31;;;;;;;3.17;2.87;;;15.00;44.30;;;;;;4810666;29;20602;-86
2022/04/23 09:35:11;;;;;;;4.87;3.63;;;14.80;45.30;;;;;;4826638;29;20172;-86
2022/04/23 09:40:26;;;;;;;4.00;3.40;;;15.00;44.20;;;;;;4827392;29;20197;-87
2022/04/23 09:43:11;;;;;;;3.50;3.20;;;15.10;46.50;;;;;;4810006;29;20652;-86
2022/04/23 09:45:41;;;;;;;3.80;3.50;;;15.10;44.10;;;;;;4810165;29;20225;-87
2022/04/23 09:48:15;;;;;;;4.17;3.33;;;15.20;47.40;;;;;;4826919;29;20213;-87
2022/04/23 09:50:41;;;;;;;2.57;2.37;;;15.20;44.90;;;;;;4810951;29;20180;-85
2022/04/23 09:53:11;;;;;;;3.60;3.30;;;15.20;43.90;;;;;;4810124;29;20192;-86
2022/04/23 09:55:37;;;;;;;5.07;3.27;;;15.30;45.80;;;;;;4809971;29;20265;-85
2022/04/23 09:58:06;;;;;;;4.43;3.83;;;15.40;45.10;;;;;;4810467;29;20561;-87
2022/04/23 10:00:38;;;;;;;6.07;3.63;;;15.50;45.50;;;;;;4809605;29;20180;-87
2022/04/23 10:03:08;;;;;;;3.60;3.30;;;15.60;45.00;;;;;;4810045;29;20176;-88
2022/04/23 10:05:40;;;;;;;3.17;2.87;;;15.70;45.00;;;;;;4826517;29;20192;-87
2022/04/23 10:08:13;;;;;;;3.53;3.10;;;15.80;42.90;;;;;;4826624;29;20209;-87
2022/04/23 10:11:10;;;;;;;2.97;2.67;;;15.70;42.80;;;;;;4810127;29;20275;-85
2022/04/23 10:13:39;;;;;;;3.67;3.17;;;15.80;43.40;;;;;;4826598;29;20207;-86
2022/04/23 10:16:07;;;;;;;3.20;2.90;;;15.80;45.30;;;;;;4810322;29;20212;-86
2022/04/23 10:18:38;;;;;;;4.47;3.20;;;15.90;42.50;;;;;;4809755;29;20184;-86
2022/04/23 10:21:08;;;;;;;3.20;2.60;;;15.80;41.90;;;;;;4810871;29;20176;-86
2022/04/23 10:24:01;;;;;;;4.20;3.80;;;15.90;41.70;;;;;;4826429;29;20161;-86
2022/04/23 10:26:54;;;;;;;4.80;3.17;;;15.90;42.60;;;;;;4809777;29;20707;-87
2022/04/23 10:29:22;;;;;;;2.78;2.22;;;16.10;42.40;;;;;;4809676;29;20267;-86
2022/04/23 10:32:16;;;;;;;6.40;3.70;;;16.10;40.80;;;;;;4809690;29;20188;-85
2022/04/23 10:34:43;;;;;;;3.70;2.97;;;16.20;42.00;;;;;;4809822;29;20184;-86
2022/04/23 10:37:18;;;;;;;3.47;3.17;;;16.00;39.50;;;;;;4809848;29;20204;-86
2022/04/23 10:39:45;;;;;;;3.22;2.92;;;16.10;43.40;;;;;;4809833;29;20236;-86
2022/04/23 10:42:15;;;;;;;3.30;3.00;;;16.20;41.10;;;;;;4847109;23;20240;-90
2022/04/23 10:44:42;;;;;;;3.50;3.20;;;16.30;42.00;;;;;;4809141;29;20180;-89
2022/04/23 10:47:35;;;;;;;4.82;4.20;;;16.40;42.80;;;;;;4808544;29;20188;-89
2022/04/23 10:50:19;;;;;;;3.45;3.15;;;16.20;41.80;;;;;;4822722;29;20671;-88
2022/04/23 10:52:46;;;;;;;4.03;3.63;;;16.10;42.60;;;;;;4791031;29;20180;-89
2022/04/23 10:55:13;;;;;;;5.25;3.85;;;16.10;44.00;;;;;;4806321;29;20563;-88
2022/04/23 10:57:39;;;;;;;4.30;3.90;;;16.20;42.30;;;;;;4789975;29;20210;-88
2022/04/23 11:00:22;;;;;;;4.53;3.92;;;16.40;43.90;;;;;;4790128;29;20189;-88
2022/04/23 11:02:54;;;;;;;6.18;3.97;;;16.70;42.90;;;;;;4806530;29;20173;-89
2022/04/23 11:14:44;;;;;;;4.72;4.20;;;16.70;42.20;;;;;;4806155;29;20195;-88
2022/04/23 11:17:20;;;;;;;3.67;3.38;;;16.90;42.00;;;;;;4759387;29;20578;-88
2022/04/23 11:19:52;;;;;;;6.32;4.10;;;16.60;41.80;;;;;;4789849;29;20172;-88
2022/04/23 11:22:17;;;;;;;3.28;2.97;;;16.90;44.00;;;;;;4806124;29;20199;-88
2022/04/23 11:24:45;;;;;;;4.38;3.90;;;16.80;42.40;;;;;;4806046;29;20561;-88
2022/04/23 11:27:25;;;;;;;4.50;4.10;;;16.60;40.90;;;;;;4789877;29;20180;-88
2022/04/23 11:29:54;;;;;;;5.88;3.63;;;16.60;42.90;;;;;;4806003;29;20161;-88
2022/04/23 11:32:27;;;;;;;4.32;3.95;;;16.50;41.80;;;;;;4789663;29;20204;-88
2022/04/23 11:35:04;;;;;;;4.25;3.22;;;16.60;42.30;;;;;;4789729;29;20660;-88
2022/04/23 11:37:34;;;;;;;4.15;3.50;;;16.70;41.50;;;;;;4806068;29;20196;-88
2022/04/23 11:40:07;;;;;;;6.63;3.70;;;16.60;41.00;;;;;;4806218;29;20184;-88
2022/04/23 11:42:40;;;;;;;4.28;3.63;;;16.70;43.40;;;;;;4789511;29;20315;-88
2022/04/23 11:45:08;;;;;;;4.97;4.47;;;16.70;40.90;;;;;;4789660;29;20680;-88
2022/04/23 11:47:33;;;;;;;4.68;4.28;;;16.70;43.00;;;;;;4789649;29;20192;-88
2022/04/23 11:50:16;;;;;;;4.53;3.75;;;16.70;41.00;;;;;;4789601;29;20189;-88
2022/04/23 11:52:44;;;;;;;5.03;4.25;;;16.90;41.40;;;;;;4789411;29;20205;-88
2022/04/23 11:55:21;;;;;;;4.05;3.55;;;16.70;43.50;;;;;;4789634;29;20181;-88
2022/04/23 11:57:58;;;;;;;4.15;3.65;;;16.80;43.60;;;;;;4789578;29;20208;-89
2022/04/23 12:00:25;;;;;;;4.53;4.10;;;16.70;42.50;;;;;;4789446;29;20267;-88
2022/04/23 12:02:52;;;;;;;4.43;4.03;;;16.70;42.50;;;;;;4789543;29;20191;-88
2022/04/23 12:05:29;;;;;;;5.15;4.00;;;16.80;42.80;;;;;;4789455;29;20185;-89
2022/04/23 12:07:55;;;;;;;4.65;4.15;;;16.70;41.10;;;;;;4789485;29;20184;-88
2022/04/23 12:10:31;;;;;;;4.38;3.97;;;17.00;42.30;;;;;;4789458;29;20192;-88
2022/04/23 12:13:05;;;;;;;4.40;4.00;;;17.00;41.40;;;;;;4789530;29;20700;-88
2022/04/23 12:15:31;;;;;;;6.80;3.95;;;16.90;42.70;;;;;;4789440;29;20189;-88
2022/04/23 12:17:57;;;;;;;4.53;3.40;;;16.80;42.30;;;;;;4789837;29;20208;-88
2022/04/23 12:20:25;;;;;;;5.13;4.63;;;16.80;41.90;;;;;;4805516;29;20247;-88
2022/04/23 12:23:09;;;;;;;4.70;4.22;;;16.80;43.30;;;;;;4790073;29;20185;-88
2022/04/23 12:25:36;;;;;;;4.80;4.32;;;17.00;42.00;;;;;;4792639;29;20180;-88
2022/04/23 12:42:05;;;;;;;7.72;6.50;;;17.20;42.20;;;;;;4808513;29;20242;-88
2022/04/23 12:44:37;;;;;;;7.05;6.35;;;17.00;44.60;;;;;;4792079;29;20192;-89
2022/04/23 12:47:08;;;;;;;7.38;6.22;;;16.70;45.90;;;;;;4808486;29;20169;-88
2022/04/23 12:50:06;;;;;;;7.53;6.18;;;16.90;46.10;;;;;;4792131;29;20187;-89
2022/04/23 12:52:38;;;;;;;9.07;6.72;;;16.60;45.80;;;;;;4801249;29;20722;-89
2022/04/23 12:55:28;;;;;;;7.97;6.43;;;16.80;46.60;;;;;;4792124;29;20234;-88
2022/04/23 12:58:03;;;;;;;6.75;5.90;;;16.80;46.00;;;;;;4792045;29;20308;-89
2022/04/23 13:00:42;;;;;;;7.93;6.75;;;16.70;47.80;;;;;;4808120;29;20180;-88
2022/04/23 13:03:29;;;;;;;7.47;6.18;;;16.80;46.40;;;;;;4808267;29;20167;-89
2022/04/23 13:05:55;;;;;;;15.30;7.07;;;16.60;45.90;;;;;;4791875;29;20173;-88
2022/04/23 13:13:48;;;;;;;8.15;6.95;;;17.10;48.10;;;;;;4808304;29;20168;-88
2022/04/23 13:16:14;;;;;;;7.40;6.60;;;16.90;46.50;;;;;;4791749;29;20287;-88
2022/04/23 13:18:40;;;;;;;8.93;7.15;;;17.00;47.50;;;;;;4791673;29;20555;-88
2022/04/23 13:21:07;;;;;;;7.82;7.03;;;16.80;45.90;;;;;;4791604;29;20216;-88
2022/04/23 13:23:33;;;;;;;7.65;6.85;;;17.00;47.30;;;;;;4807730;29;20657;-88
2022/04/23 13:25:59;;;;;;;7.35;6.60;;;16.90;46.30;;;;;;4791496;29;20185;-88
2022/04/23 13:28:25;;;;;;;8.73;7.40;;;16.70;47.60;;;;;;4807844;29;20302;-89
2022/04/23 13:30:51;;;;;;;8.63;7.15;;;16.70;48.20;;;;;;4791380;29;20759;-88
2022/04/23 13:33:17;;;;;;;9.07;7.10;;;16.90;46.30;;;;;;4791768;29;20226;-88